Time;durP1;ratioP1;P1;durP2;ratioP2;P2;SDS_P1;SDS_P2;PMS_P1;PMS_P2;Temp;Humidity;BMP_temperature;BMP_pressure;BME280_temperature;BME280_humidity;BME280_pressure;Samples;Min_cycle;Max_cycle;Signal;HPM_P1;HPM_P2
2021/04/03 00:00:40;;;;;;;27.35;11.30;;;3.50;99.90;;;;;;4898241;29;20556;-79
2021/04/03 00:03:10;;;;;;;25.00;10.27;;;3.50;99.90;;;;;;4912457;29;20144;-78
2021/04/03 00:05:36;;;;;;;31.52;10.18;;;3.60;99.90;;;;;;4898420;29;20044;-80
2021/04/03 00:08:04;;;;;;;24.52;10.23;;;3.50;99.90;;;;;;4899130;29;20052;-80
2021/04/03 00:10:38;;;;;;;18.92;10.27;;;3.40;99.90;;;;;;4898247;29;20571;-80
2021/04/03 00:13:04;;;;;;;23.85;10.73;;;3.50;99.90;;;;;;4898190;29;20492;-79
2021/04/03 00:15:31;;;;;;;31.30;11.18;;;3.40;99.90;;;;;;4897533;29;20056;-79
2021/04/03 00:17:57;;;;;;;22.38;10.40;;;3.40;99.90;;;;;;4913915;29;20521;-78
2021/04/03 00:20:27;;;;;;;25.88;10.80;;;3.30;99.90;;;;;;4909514;29;20067;-79
2021/04/03 00:22:53;;;;;;;24.15;9.70;;;3.30;99.90;;;;;;4914111;29;20688;-79
2021/04/03 00:25:20;;;;;;;27.75;11.75;;;3.30;99.90;;;;;;4888275;29;20057;-79
2021/04/03 00:27:46;;;;;;;24.10;10.95;;;3.30;99.90;;;;;;4865185;29;20056;-79
2021/04/03 00:30:20;;;;;;;26.10;10.15;;;3.40;99.90;;;;;;4910073;29;20143;-80
2021/04/03 00:32:54;;;;;;;29.58;9.00;;;3.40;99.90;;;;;;4894845;29;20045;-79
2021/04/03 00:35:25;;;;;;;19.48;10.27;;;3.40;99.90;;;;;;4896007;29;20111;-81
2021/04/03 00:37:51;;;;;;;26.27;9.75;;;3.40;99.90;;;;;;4878944;29;20497;-79
2021/04/03 00:40:30;;;;;;;30.33;10.23;;;3.30;99.90;;;;;;4911360;29;20046;-79
2021/04/03 00:43:12;;;;;;;24.40;10.63;;;3.20;99.90;;;;;;4906565;29;20177;-80
2021/04/03 00:45:39;;;;;;;27.70;10.82;;;3.10;99.90;;;;;;4906979;29;20076;-78
2021/04/03 00:48:06;;;;;;;30.50;10.30;;;3.10;99.90;;;;;;4892343;29;20058;-79
2021/04/03 00:50:36;;;;;;;38.20;10.70;;;3.00;99.90;;;;;;4895381;29;20108;-79
2021/04/03 00:53:08;;;;;;;21.13;8.93;;;3.00;99.90;;;;;;4901286;29;20083;-80
2021/04/03 00:55:38;;;;;;;30.60;10.68;;;3.00;99.90;;;;;;4881548;29;20060;-79
2021/04/03 00:58:07;;;;;;;33.60;10.60;;;3.00;99.90;;;;;;4895913;29;20040;-80
2021/04/03 01:00:34;;;;;;;32.42;10.38;;;3.00;99.90;;;;;;4898713;29;20055;-79
2021/04/03 01:03:01;;;;;;;26.00;10.13;;;3.00;99.90;;;;;;4887134;29;20456;-80
2021/04/03 01:05:28;;;;;;;25.88;9.55;;;2.80;99.90;;;;;;4898481;29;20155;-80
2021/04/03 01:07:58;;;;;;;34.60;11.20;;;2.80;99.90;;;;;;4882763;29;20052;-80
2021/04/03 01:10:29;;;;;;;31.00;10.20;;;2.80;99.90;;;;;;4912723;29;20051;-79
2021/04/03 01:13:36;;;;;;;30.80;10.20;;;2.70;99.90;;;;;;4880553;29;20084;-80
2021/04/03 01:16:24;;;;;;;24.98;9.68;;;2.60;99.90;;;;;;4891882;29;20068;-79
2021/04/03 01:19:07;;;;;;;29.77;9.70;;;2.50;99.90;;;;;;4890601;29;20637;-80
2021/04/03 01:21:52;;;;;;;29.45;10.40;;;2.50;99.90;;;;;;4907267;29;20063;-79
2021/04/03 01:24:30;;;;;;;25.75;9.85;;;2.60;99.90;;;;;;4917883;29;20540;-80
2021/04/03 01:27:13;;;;;;;27.98;9.93;;;2.60;99.90;;;;;;4875705;29;20041;-79
2021/04/03 01:30:05;;;;;;;21.35;9.50;;;2.60;99.90;;;;;;4907388;29;20060;-78
2021/04/03 01:32:51;;;;;;;40.05;10.35;;;2.50;99.90;;;;;;4897620;29;20048;-80
2021/04/03 01:35:28;;;;;;;40.50;11.18;;;2.40;99.90;;;;;;4899432;29;20044;-78
2021/04/03 01:38:06;;;;;;;28.25;10.35;;;2.40;99.90;;;;;;4884599;29;20048;-79
2021/04/03 01:40:34;;;;;;;30.88;10.43;;;2.50;99.90;;;;;;4883813;29;20047;-80
2021/04/03 01:43:15;;;;;;;35.22;10.80;;;2.40;99.90;;;;;;4884570;29;20052;-79
2021/04/03 01:45:45;;;;;;;39.45;9.70;;;2.40;99.90;;;;;;4892434;29;20111;-79
2021/04/03 01:48:16;;;;;;;37.05;10.57;;;2.40;99.90;;;;;;4911527;29;20052;-80
2021/04/03 01:50:45;;;;;;;40.88;10.00;;;2.30;99.90;;;;;;4891872;29;20060;-79
2021/04/03 01:53:19;;;;;;;44.97;10.88;;;2.30;99.90;;;;;;4885535;29;20175;-79
2021/04/03 01:55:49;;;;;;;32.60;10.57;;;2.40;99.90;;;;;;4898487;29;20067;-79
2021/04/03 01:58:17;;;;;;;52.20;10.05;;;2.40;99.90;;;;;;4916093;29;20056;-79
2021/04/03 02:00:45;;;;;;;29.30;10.50;;;2.30;99.90;;;;;;4880054;29;20060;-79
2021/04/03 02:03:12;;;;;;;43.20;9.77;;;2.30;99.90;;;;;;4894395;29;20043;-79
2021/04/03 02:05:41;;;;;;;43.40;8.98;;;2.40;99.90;;;;;;4894866;29;20055;-80
2021/04/03 02:08:27;;;;;;;44.65;10.85;;;2.40;99.90;;;;;;4899513;29;20056;-79
2021/04/03 02:11:13;;;;;;;33.83;9.23;;;2.50;99.90;;;;;;4900018;29;20060;-80
2021/04/03 02:13:41;;;;;;;37.17;9.07;;;2.50;99.90;;;;;;4897514;29;20059;-79
2021/04/03 02:16:08;;;;;;;39.85;11.80;;;2.50;99.90;;;;;;4912083;29;20176;-78
2021/04/03 02:18:40;;;;;;;34.58;10.13;;;2.40;99.90;;;;;;4913095;29;20044;-80
2021/04/03 02:21:09;;;;;;;34.55;11.13;;;2.30;99.90;;;;;;4894740;29;20048;-79
2021/04/03 02:23:40;;;;;;;43.38;10.82;;;2.30;99.90;;;;;;4886759;29;20048;-79
2021/04/03 02:26:10;;;;;;;28.23;9.38;;;2.30;99.90;;;;;;4899470;29;20136;-79
2021/04/03 02:28:37;;;;;;;39.15;10.32;;;2.30;99.90;;;;;;4915107;29;20068;-78
2021/04/03 02:31:05;;;;;;;36.50;10.40;;;2.30;99.90;;;;;;4883387;29;20044;-80
2021/04/03 02:33:31;;;;;;;36.08;10.57;;;2.20;99.90;;;;;;4880170;29;20044;-80
2021/04/03 02:35:59;;;;;;;51.78;11.20;;;2.20;99.90;;;;;;4882337;29;20056;-79
2021/04/03 02:38:26;;;;;;;39.22;10.57;;;2.20;99.90;;;;;;4900512;29;20135;-79
2021/04/03 02:41:09;;;;;;;33.28;9.93;;;2.20;99.90;;;;;;4915042;29;20048;-79
2021/04/03 02:43:56;;;;;;;31.60;9.90;;;2.20;99.90;;;;;;4915743;29;20060;-80
2021/04/03 02:46:36;;;;;;;37.10;10.55;;;2.30;99.90;;;;;;4912643;29;20060;-80
2021/04/03 02:49:13;;;;;;;40.42;9.90;;;2.20;99.90;;;;;;4886744;29;20063;-79
2021/04/03 02:51:46;;;;;;;28.73;9.73;;;2.30;99.90;;;;;;4891959;29;20060;-80
2021/04/03 02:54:18;;;;;;;32.95;10.25;;;2.30;99.90;;;;;;4891202;29;20054;-79
2021/04/03 02:56:48;;;;;;;24.33;9.57;;;2.30;99.90;;;;;;4914174;29;20120;-79
2021/04/03 02:59:24;;;;;;;39.42;9.43;;;2.30;99.90;;;;;;4883115;29;20043;-79
2021/04/03 03:01:54;;;;;;;33.92;10.40;;;2.30;99.90;;;;;;4878924;29;20085;-79
2021/04/03 03:04:22;;;;;;;40.08;11.73;;;2.20;99.90;;;;;;4889332;29;20044;-79
2021/04/03 03:06:49;;;;;;;32.15;10.32;;;2.10;99.90;;;;;;4883144;29;20519;-80
2021/04/03 03:09:18;;;;;;;35.28;9.93;;;2.10;99.90;;;;;;4882080;29;20048;-80
2021/04/03 03:11:51;;;;;;;37.20;10.55;;;2.20;99.90;;;;;;4897392;29;20044;-80
2021/04/03 03:14:19;;;;;;;27.73;9.70;;;2.10;99.90;;;;;;4898632;29;20503;-80
2021/04/03 03:16:48;;;;;;;25.23;9.43;;;2.00;99.90;;;;;;4909405;29;20053;-80
2021/04/03 03:19:17;;;;;;;34.00;9.82;;;2.00;99.90;;;;;;4902262;29;20052;-79
2021/04/03 03:21:46;;;;;;;28.40;9.38;;;1.80;99.90;;;;;;4890732;29;20048;-80
2021/04/03 03:24:15;;;;;;;33.80;8.68;;;1.80;99.90;;;;;;4883654;29;20449;-80
2021/04/03 03:26:42;;;;;;;39.72;9.68;;;1.80;99.90;;;;;;4878491;29;20119;-79
2021/04/03 03:29:11;;;;;;;37.38;9.32;;;1.80;99.90;;;;;;4879989;29;20044;-80
2021/04/03 03:31:40;;;;;;;28.48;9.85;;;1.80;99.90;;;;;;4875570;29;20699;-80
2021/04/03 03:34:09;;;;;;;37.97;10.38;;;1.80;99.90;;;;;;4909061;29;20059;-80
2021/04/03 03:36:40;;;;;;;38.00;10.32;;;1.80;99.90;;;;;;4890387;29;20052;-80
2021/04/03 03:39:08;;;;;;;38.58;11.82;;;1.80;99.90;;;;;;4879638;29;20040;-80
2021/04/03 03:41:36;;;;;;;30.92;9.85;;;1.70;99.90;;;;;;4903609;29;20048;-80
2021/04/03 03:44:06;;;;;;;29.85;9.35;;;1.70;99.90;;;;;;4910934;29;20052;-81
2021/04/03 03:46:34;;;;;;;27.85;9.52;;;1.70;99.90;;;;;;4907686;29;20068;-80
2021/04/03 03:49:05;;;;;;;43.20;11.30;;;1.70;99.90;;;;;;4877085;29;20052;-81
2021/04/03 03:51:33;;;;;;;30.92;10.07;;;1.60;99.90;;;;;;4890093;29;20127;-79
2021/04/03 03:54:07;;;;;;;36.77;10.67;;;1.60;99.90;;;;;;4894315;29;20053;-81
2021/04/03 03:56:34;;;;;;;28.65;9.60;;;1.50;99.90;;;;;;4914715;29;20127;-80
2021/04/03 03:59:01;;;;;;;31.85;10.07;;;1.60;99.90;;;;;;4897836;29;20044;-81
2021/04/03 04:01:27;;;;;;;24.92;9.20;;;1.60;99.90;;;;;;4911924;29;20504;-80
2021/04/03 04:03:54;;;;;;;32.38;10.68;;;1.50;99.90;;;;;;4865229;29;20358;-80
2021/04/03 04:06:22;;;;;;;36.42;10.73;;;1.60;99.90;;;;;;4910400;29;20155;-80
2021/04/03 04:08:51;;;;;;;30.60;9.07;;;1.60;99.90;;;;;;4897694;29;20052;-80
2021/04/03 04:11:20;;;;;;;32.45;9.90;;;1.50;99.90;;;;;;4883581;29;20627;-81
2021/04/03 04:13:52;;;;;;;31.92;9.63;;;1.50;99.90;;;;;;4904021;29;20159;-79
2021/04/03 04:16:26;;;;;;;28.63;9.32;;;1.60;99.90;;;;;;4910205;29;20052;-81
2021/04/03 04:18:53;;;;;;;45.33;10.73;;;1.60;99.90;;;;;;4894673;29;20048;-80
2021/04/03 04:21:19;;;;;;;34.38;10.05;;;1.60;99.90;;;;;;4899186;29;20087;-79
2021/04/03 04:23:47;;;;;;;23.98;9.25;;;1.60;99.90;;;;;;4902666;29;20115;-80
2021/04/03 04:26:13;;;;;;;32.17;9.55;;;1.70;99.90;;;;;;4917609;29;20067;-80
2021/04/03 04:28:43;;;;;;;31.27;11.13;;;1.60;99.90;;;;;;4887365;29;20158;-80
2021/04/03 04:31:13;;;;;;;38.15;10.95;;;1.80;99.90;;;;;;4902365;29;20081;-80
2021/04/03 04:33:51;;;;;;;26.27;9.48;;;1.80;99.90;;;;;;4900407;29;20044;-80
2021/04/03 04:36:19;;;;;;;33.22;9.45;;;1.80;99.90;;;;;;4897158;29;20107;-80
2021/04/03 04:38:47;;;;;;;27.50;9.00;;;1.80;99.90;;;;;;4887050;29;20060;-79
2021/04/03 04:41:14;;;;;;;34.13;10.32;;;1.80;99.90;;;;;;4933852;29;20617;-80
2021/04/03 04:43:42;;;;;;;29.65;10.43;;;1.90;99.90;;;;;;4887097;29;20111;-80
2021/04/03 04:46:09;;;;;;;28.70;9.63;;;1.90;99.90;;;;;;4886522;29;20094;-79
2021/04/03 04:48:48;;;;;;;35.50;10.20;;;1.90;99.90;;;;;;4898648;29;20436;-81
2021/04/03 04:51:21;;;;;;;40.05;10.77;;;2.00;99.90;;;;;;4900359;29;20058;-79
2021/04/03 04:53:51;;;;;;;31.75;10.32;;;2.00;99.90;;;;;;4871563;29;20360;-81
2021/04/03 04:56:24;;;;;;;30.42;11.85;;;2.10;99.90;;;;;;4898158;29;20612;-80
2021/04/03 04:58:51;;;;;;;43.90;12.25;;;2.20;99.90;;;;;;4932616;29;20060;-80
2021/04/03 05:01:21;;;;;;;29.48;10.32;;;2.30;99.90;;;;;;4916888;29;20129;-80
2021/04/03 05:03:48;;;;;;;39.58;10.80;;;2.30;99.90;;;;;;4896222;29;20063;-79
2021/04/03 05:06:15;;;;;;;45.88;11.70;;;2.40;99.90;;;;;;4896602;29;20492;-80
2021/04/03 05:08:41;;;;;;;30.60;11.95;;;2.40;99.90;;;;;;4887136;29;20091;-79
2021/04/03 05:11:07;;;;;;;36.22;11.75;;;2.30;99.90;;;;;;4902653;29;20520;-79
2021/04/03 05:13:33;;;;;;;37.78;12.00;;;2.40;99.90;;;;;;4902387;29;20115;-79
2021/04/03 05:16:00;;;;;;;42.55;11.23;;;2.40;99.90;;;;;;4885021;29;20044;-79
2021/04/03 05:18:26;;;;;;;35.10;12.23;;;2.40;99.90;;;;;;4924505;29;20119;-81
2021/04/03 05:20:53;;;;;;;41.30;12.70;;;2.40;99.90;;;;;;4914844;29;20080;-79
2021/04/03 05:23:19;;;;;;;35.92;11.75;;;2.40;99.90;;;;;;4899159;29;20571;-79
2021/04/03 05:25:47;;;;;;;37.67;12.52;;;2.40;99.90;;;;;;4880247;29;20116;-79
2021/04/03 05:28:13;;;;;;;38.03;13.45;;;2.40;99.90;;;;;;4883035;29;20116;-79
2021/04/03 05:30:43;;;;;;;38.92;15.27;;;2.50;99.90;;;;;;4882788;29;20064;-79
2021/04/03 05:33:10;;;;;;;47.05;15.27;;;2.60;99.90;;;;;;4883989;29;20048;-79
2021/04/03 05:35:37;;;;;;;37.10;12.68;;;2.60;99.90;;;;;;4899506;29;20116;-79
2021/04/03 05:38:03;;;;;;;42.30;14.40;;;2.60;99.90;;;;;;4869739;29;20084;-80
2021/04/03 05:40:30;;;;;;;45.05;17.08;;;2.70;99.90;;;;;;4878104;29;20504;-79
2021/04/03 05:42:58;;;;;;;37.15;13.50;;;2.80;99.90;;;;;;4901666;29;20084;-79
2021/04/03 05:45:27;;;;;;;34.47;14.73;;;2.70;99.90;;;;;;4918024;29;20064;-79
2021/04/03 05:47:55;;;;;;;38.97;15.20;;;2.70;99.90;;;;;;4890339;29;20060;-80
2021/04/03 05:50:21;;;;;;;42.80;15.20;;;2.60;99.90;;;;;;4909992;29;20131;-79
2021/04/03 05:52:49;;;;;;;42.25;13.63;;;2.60;99.90;;;;;;4917717;29;20073;-79
2021/04/03 05:55:16;;;;;;;42.58;13.73;;;2.70;99.90;;;;;;4917384;29;20143;-79
2021/04/03 05:57:42;;;;;;;38.80;14.80;;;2.80;99.90;;;;;;4901430;29;20131;-79
2021/04/03 06:00:09;;;;;;;44.17;14.30;;;2.80;99.90;;;;;;4917461;29;20044;-78
2021/04/03 06:02:41;;;;;;;34.33;13.07;;;2.70;99.90;;;;;;4886788;29;20108;-78
2021/04/03 06:05:08;;;;;;;40.40;13.55;;;2.80;99.90;;;;;;4901784;29;20056;-79
2021/04/03 06:07:35;;;;;;;36.45;13.52;;;2.80;99.90;;;;;;4895991;29;20064;-80
2021/04/03 06:10:05;;;;;;;43.50;14.85;;;2.90;99.90;;;;;;4879970;29;20162;-79
2021/04/03 06:12:49;;;;;;;39.97;14.55;;;2.90;99.90;;;;;;4895591;29;20056;-80
2021/04/03 06:15:24;;;;;;;42.65;14.25;;;3.00;99.90;;;;;;4912576;29;20418;-79
2021/04/03 06:18:06;;;;;;;39.92;16.23;;;3.10;99.90;;;;;;4911788;29;20700;-78
2021/04/03 06:20:35;;;;;;;50.40;15.70;;;3.10;99.90;;;;;;4897489;29;20136;-79
2021/04/03 06:23:03;;;;;;;44.83;14.98;;;3.20;99.90;;;;;;4929789;29;20533;-79
2021/04/03 06:25:29;;;;;;;36.03;14.77;;;3.30;99.90;;;;;;4905695;29;20083;-80
2021/04/03 06:28:06;;;;;;;42.00;15.13;;;3.30;99.90;;;;;;4898342;29;20147;-80
2021/04/03 06:30:36;;;;;;;45.53;14.98;;;3.30;99.90;;;;;;4882659;29;20060;-80
2021/04/03 06:33:19;;;;;;;48.25;15.50;;;3.30;99.90;;;;;;4930345;29;20052;-80
2021/04/03 06:36:21;;;;;;;53.40;14.90;;;3.20;99.90;;;;;;4897437;29;20103;-79
2021/04/03 06:38:58;;;;;;;48.53;15.13;;;3.10;99.90;;;;;;4897698;29;20075;-79
2021/04/03 06:41:26;;;;;;;39.17;13.73;;;3.10;99.90;;;;;;4928489;29;20428;-79
2021/04/03 06:44:06;;;;;;;81.40;16.52;;;3.30;99.90;;;;;;4910587;29;20087;-79
2021/04/03 06:46:35;;;;;;;57.90;16.10;;;3.40;99.90;;;;;;4904419;29;20060;-80
2021/04/03 06:49:03;;;;;;;50.40;15.48;;;3.40;99.90;;;;;;4889412;29;20106;-80
2021/04/03 06:51:30;;;;;;;48.22;14.20;;;3.50;99.90;;;;;;4904287;29;20053;-80
2021/04/03 06:53:59;;;;;;;54.80;15.18;;;3.60;99.90;;;;;;4894694;29;20075;-79
2021/04/03 06:56:30;;;;;;;47.08;14.57;;;3.60;99.90;;;;;;4891613;29;20060;-78
2021/04/03 06:59:10;;;;;;;43.55;14.40;;;3.50;99.90;;;;;;4914371;29;20433;-79
2021/04/03 07:01:45;;;;;;;57.67;17.88;;;3.50;99.90;;;;;;4881242;29;20047;-79
2021/04/03 07:04:34;;;;;;;;;;;3.50;99.90;;;;;;4892052;29;20056;-80
2021/04/03 07:07:03;;;;;;;56.25;16.98;;;3.40;99.90;;;;;;4908617;29;19975;-79
2021/04/03 07:09:30;;;;;;;43.67;14.93;;;3.50;99.90;;;;;;4882892;29;20071;-79
2021/04/03 07:11:57;;;;;;;56.28;16.95;;;3.60;99.90;;;;;;4892750;29;20068;-80
2021/04/03 07:14:23;;;;;;;52.25;16.42;;;3.60;99.90;;;;;;4891842;29;20111;-80
2021/04/03 07:16:51;;;;;;;47.70;15.63;;;3.70;99.90;;;;;;4886378;29;20131;-80
2021/04/03 07:19:18;;;;;;;57.85;18.10;;;3.50;99.90;;;;;;4892956;29;20120;-79
2021/04/03 07:21:45;;;;;;;43.80;15.30;;;3.50;99.90;;;;;;4894182;29;20234;-80
2021/04/03 07:24:16;;;;;;;57.58;17.10;;;3.60;99.90;;;;;;4899581;29;20058;-80
2021/04/03 07:26:46;;;;;;;50.17;16.67;;;3.60;99.90;;;;;;4882973;29;20053;-79
2021/04/03 07:29:49;;;;;;;51.97;17.63;;;3.60;99.90;;;;;;4929563;29;20680;-79
2021/04/03 07:32:32;;;;;;;46.60;16.58;;;3.50;99.90;;;;;;4911893;29;20064;-79
2021/04/03 07:35:00;;;;;;;49.75;15.48;;;3.50;99.90;;;;;;4889473;29;20177;-80
2021/04/03 07:37:32;;;;;;;51.95;16.30;;;3.40;99.90;;;;;;4895392;29;20492;-78
2021/04/03 07:39:59;;;;;;;41.72;16.17;;;3.30;99.90;;;;;;4868438;29;20139;-79
2021/04/03 07:42:37;;;;;;;47.35;14.93;;;3.30;99.90;;;;;;4865141;29;20131;-78
2021/04/03 07:45:29;;;;;;;40.17;15.48;;;3.30;99.90;;;;;;4889602;29;20041;-80
2021/04/03 07:47:57;;;;;;;58.50;15.88;;;3.30;99.90;;;;;;4905508;29;20078;-80
2021/04/03 07:50:42;;;;;;;55.95;15.55;;;3.30;99.90;;;;;;4905782;29;20056;-78
2021/04/03 07:53:09;;;;;;;48.55;14.73;;;3.40;99.90;;;;;;4917820;29;20064;-79
2021/04/03 07:55:38;;;;;;;42.17;15.15;;;3.20;99.90;;;;;;4884517;29;20071;-79
2021/04/03 07:58:23;;;;;;;57.80;17.00;;;3.30;99.90;;;;;;4901597;29;20310;-80
2021/04/03 08:00:50;;;;;;;48.42;17.27;;;3.50;99.90;;;;;;4900578;29;20115;-79
2021/04/03 08:03:22;;;;;;;61.20;16.80;;;3.60;99.90;;;;;;4892034;29;20055;-78
2021/04/03 08:06:00;;;;;;;56.72;15.77;;;3.60;99.90;;;;;;4885682;29;20060;-79
2021/04/03 08:08:39;;;;;;;44.90;14.73;;;3.70;99.90;;;;;;4897495;29;20059;-79
2021/04/03 08:11:11;;;;;;;36.78;14.88;;;3.70;99.90;;;;;;4884499;29;20694;-79
2021/04/03 08:13:40;;;;;;;50.53;16.35;;;3.70;99.90;;;;;;4918297;29;20135;-79
2021/04/03 08:16:09;;;;;;;46.50;17.83;;;3.80;99.90;;;;;;4917180;29;20087;-80
2021/04/03 08:18:38;;;;;;;47.38;17.38;;;4.00;99.90;;;;;;4901804;29;20084;-78
2021/04/03 08:21:06;;;;;;;52.35;19.20;;;4.00;99.90;;;;;;4885018;29;20061;-80
2021/04/03 08:23:41;;;;;;;45.80;15.70;;;4.20;99.90;;;;;;4899700;29;20412;-78
2021/04/03 08:26:09;;;;;;;38.00;16.08;;;4.20;99.90;;;;;;4916537;29;20133;-80
2021/04/03 08:28:36;;;;;;;46.13;17.90;;;4.10;99.90;;;;;;4886593;29;20519;-80
2021/04/03 08:31:26;;;;;;;46.05;17.83;;;4.20;99.90;;;;;;4915342;29;20148;-80
2021/04/03 08:33:58;;;;;;;39.45;16.20;;;4.20;99.90;;;;;;4905084;29;20044;-78
2021/04/03 08:36:26;;;;;;;52.15;17.20;;;4.20;99.90;;;;;;4877048;29;20040;-78
2021/04/03 08:38:54;;;;;;;50.28;16.77;;;4.10;99.90;;;;;;4863623;29;20076;-79
2021/04/03 08:41:22;;;;;;;47.03;17.67;;;4.20;99.90;;;;;;4891015;29;20040;-78
2021/04/03 08:43:49;;;;;;;59.92;17.88;;;4.30;99.90;;;;;;4913427;29;20076;-79
2021/04/03 08:46:18;;;;;;;51.38;15.85;;;4.40;99.90;;;;;;4896129;29;20116;-78
2021/04/03 08:48:56;;;;;;;44.88;16.80;;;4.80;99.90;;;;;;4896034;29;20048;-80
2021/04/03 08:51:24;;;;;;;44.10;18.13;;;4.90;99.90;;;;;;4914057;29;20083;-78
2021/04/03 08:53:54;;;;;;;38.05;19.27;;;5.00;99.90;;;;;;4897226;29;20052;-79
2021/04/03 08:56:32;;;;;;;43.08;19.10;;;5.00;99.90;;;;;;4881238;29;20816;-79
2021/04/03 08:59:01;;;;;;;55.17;21.75;;;4.90;99.90;;;;;;4897314;29;20527;-79
2021/04/03 09:01:29;;;;;;;53.33;22.45;;;4.70;99.90;;;;;;4911652;29;20612;-80
2021/04/03 09:04:03;;;;;;;40.47;19.38;;;4.90;99.90;;;;;;4888026;29;20435;-79
2021/04/03 09:06:54;;;;;;;35.75;17.88;;;4.80;99.90;;;;;;4891145;29;20053;-80
2021/04/03 09:09:23;;;;;;;41.88;17.13;;;5.00;99.90;;;;;;4863068;29;20056;-79
2021/04/03 09:11:57;;;;;;;47.85;19.77;;;5.30;99.90;;;;;;4919934;29;20124;-79
2021/04/03 09:14:37;;;;;;;42.65;18.88;;;5.50;99.90;;;;;;4878400;29;20151;-78
2021/04/03 09:17:24;;;;;;;49.47;18.73;;;5.40;99.90;;;;;;4902261;29;20144;-79
2021/04/03 09:20:03;;;;;;;43.35;18.05;;;5.40;99.90;;;;;;4919192;29;20497;-79
2021/04/03 09:22:39;;;;;;;38.05;18.08;;;5.40;99.90;;;;;;4878914;29;20057;-79
2021/04/03 09:25:10;;;;;;;30.95;18.85;;;5.60;99.90;;;;;;4862498;29;20108;-79
2021/04/03 09:27:37;;;;;;;29.88;19.38;;;5.70;99.90;;;;;;4867421;29;20048;-80
2021/04/03 09:30:06;;;;;;;35.00;19.10;;;5.90;99.90;;;;;;4912878;29;20152;-79
2021/04/03 09:32:44;;;;;;;34.70;17.88;;;6.00;99.90;;;;;;4892894;29;20813;-80
2021/04/03 09:35:13;;;;;;;37.35;17.48;;;6.20;99.90;;;;;;4919213;29;20323;-78
2021/04/03 09:37:39;;;;;;;38.05;17.80;;;6.20;99.90;;;;;;4884544;29;20147;-79
2021/04/03 09:40:07;;;;;;;33.60;16.90;;;6.20;99.90;;;;;;4863775;29;20147;-79
2021/04/03 09:42:35;;;;;;;44.15;17.80;;;6.30;99.90;;;;;;4911748;29;20084;-78
2021/04/03 09:45:05;;;;;;;36.10;16.90;;;6.30;99.90;;;;;;4896795;29;20100;-79
2021/04/03 09:47:31;;;;;;;33.97;16.45;;;6.50;99.90;;;;;;4911198;29;20056;-78
2021/04/03 09:49:58;;;;;;;31.95;16.77;;;7.10;99.90;;;;;;4907443;29;20143;-79
2021/04/03 09:52:25;;;;;;;26.70;16.50;;;7.40;99.90;;;;;;4895061;29;20080;-80
2021/04/03 09:54:52;;;;;;;36.40;17.60;;;7.40;99.90;;;;;;4885966;29;20123;-78
2021/04/03 09:57:20;;;;;;;33.10;17.55;;;7.00;99.90;;;;;;4896236;29;20530;-79
2021/04/03 09:59:46;;;;;;;32.90;17.77;;;6.70;99.90;;;;;;4881648;29;20048;-79
2021/04/03 10:02:13;;;;;;;29.35;17.10;;;6.70;99.90;;;;;;4903304;29;20102;-78
2021/04/03 10:04:40;;;;;;;30.10;17.77;;;6.80;99.90;;;;;;4893324;29;20159;-80
2021/04/03 10:07:06;;;;;;;27.75;17.08;;;7.10;99.90;;;;;;4890539;29;20087;-79
2021/04/03 10:09:32;;;;;;;20.52;16.77;;;7.40;99.90;;;;;;4901772;29;20048;-80
2021/04/03 10:11:59;;;;;;;29.70;17.45;;;7.80;99.90;;;;;;4895098;29;20049;-79
2021/04/03 10:14:26;;;;;;;36.83;17.55;;;8.20;99.90;;;;;;4902470;29;20059;-80
2021/04/03 10:17:01;;;;;;;33.53;18.10;;;8.00;99.90;;;;;;4892306;29;20049;-79
2021/04/03 10:19:28;;;;;;;32.35;15.57;;;7.70;99.90;;;;;;4904573;29;20499;-79
2021/04/03 10:21:54;;;;;;;32.10;18.58;;;7.40;99.90;;;;;;4909345;29;20052;-79
2021/04/03 10:24:20;;;;;;;24.67;16.63;;;7.40;99.90;;;;;;4909628;29;20060;-79
2021/04/03 10:26:47;;;;;;;27.45;15.63;;;7.80;99.90;;;;;;4899850;29;20510;-79
2021/04/03 10:29:13;;;;;;;31.63;16.02;;;8.20;99.90;;;;;;4897759;29;20092;-79
2021/04/03 10:31:40;;;;;;;29.38;17.90;;;8.30;99.90;;;;;;4880584;29;20107;-79
2021/04/03 10:34:06;;;;;;;25.95;16.20;;;8.60;99.90;;;;;;4900729;29;20056;-79
2021/04/03 10:36:32;;;;;;;26.42;16.58;;;8.80;99.90;;;;;;4904188;29;20045;-80
2021/04/03 10:38:59;;;;;;;30.35;17.10;;;8.40;99.90;;;;;;4898760;29;20489;-79
2021/04/03 10:41:25;;;;;;;27.40;17.73;;;8.20;99.90;;;;;;4897066;29;20099;-79
2021/04/03 10:43:51;;;;;;;26.33;16.33;;;8.20;99.90;;;;;;4881212;29;20500;-81
2021/04/03 10:46:18;;;;;;;20.92;16.60;;;8.70;99.90;;;;;;4912312;29;20109;-81
2021/04/03 10:48:44;;;;;;;30.35;17.10;;;9.00;99.90;;;;;;4889401;29;20056;-78
2021/04/03 10:51:10;;;;;;;23.55;16.10;;;8.90;99.90;;;;;;4908929;29;20135;-81
2021/04/03 10:53:37;;;;;;;29.40;17.20;;;9.10;99.90;;;;;;4877544;29;20210;-78
2021/04/03 10:56:04;;;;;;;26.85;16.65;;;9.40;99.90;;;;;;4876528;29;20512;-79
2021/04/03 10:58:30;;;;;;;29.08;16.30;;;9.60;99.90;;;;;;4912139;29;20056;-78
2021/04/03 11:00:57;;;;;;;30.08;16.05;;;9.40;99.90;;;;;;4874112;29;20453;-79
2021/04/03 11:03:23;;;;;;;30.10;17.40;;;8.80;99.90;;;;;;4906928;29;20110;-80
2021/04/03 11:05:50;;;;;;;31.73;16.95;;;8.20;99.90;;;;;;4888575;29;20052;-80
2021/04/03 11:08:16;;;;;;;23.63;17.95;;;8.20;99.90;;;;;;4895848;29;20068;-80
2021/04/03 11:10:42;;;;;;;27.70;18.77;;;8.50;99.90;;;;;;4897290;29;20107;-79
2021/04/03 11:13:09;;;;;;;25.58;17.70;;;8.80;99.90;;;;;;4908067;29;20055;-80
2021/04/03 11:15:35;;;;;;;24.77;17.13;;;9.00;99.90;;;;;;4906134;29;20044;-80
2021/04/03 11:18:01;;;;;;;26.60;17.13;;;9.30;99.90;;;;;;4896699;29;20112;-80
2021/04/03 11:20:28;;;;;;;20.40;17.00;;;9.40;99.90;;;;;;4869515;29;20151;-80
2021/04/03 11:22:54;;;;;;;24.42;16.73;;;9.60;99.90;;;;;;4900750;29;20056;-79
2021/04/03 11:25:21;;;;;;;23.08;16.33;;;9.80;99.90;;;;;;4878986;29;20107;-80
2021/04/03 11:27:47;;;;;;;20.55;16.05;;;9.80;99.90;;;;;;4908656;29;20089;-78
2021/04/03 11:30:14;;;;;;;30.83;16.85;;;9.60;99.90;;;;;;4869092;29;20576;-79
2021/04/03 11:32:47;;;;;;;22.77;17.15;;;9.60;99.90;;;;;;4888060;29;20561;-80
2021/04/03 11:35:14;;;;;;;21.50;15.75;;;9.90;99.90;;;;;;4897761;29;20086;-80
2021/04/03 11:37:42;;;;;;;19.90;16.13;;;9.70;99.90;;;;;;4888389;29;20052;-79
2021/04/03 11:40:09;;;;;;;26.92;16.98;;;9.40;99.90;;;;;;4882241;29;20056;-81
2021/04/03 11:42:36;;;;;;;23.10;17.08;;;9.10;99.90;;;;;;4898980;29;20500;-80
2021/04/03 11:45:06;;;;;;;21.45;17.10;;;9.10;99.90;;;;;;4900214;29;20048;-81
2021/04/03 11:47:33;;;;;;;21.92;16.58;;;9.40;99.90;;;;;;4896840;29;20072;-80
2021/04/03 11:50:00;;;;;;;25.60;18.13;;;9.70;99.90;;;;;;4909165;29;20055;-82
2021/04/03 11:52:30;;;;;;;29.02;18.55;;;9.60;99.90;;;;;;4879022;29;20048;-80
2021/04/03 11:54:56;;;;;;;28.83;19.55;;;9.40;99.90;;;;;;4910499;29;20071;-79
2021/04/03 11:57:23;;;;;;;25.02;18.50;;;9.50;99.90;;;;;;4894988;29;20102;-80
2021/04/03 11:59:49;;;;;;;26.33;18.00;;;9.50;99.90;;;;;;4892837;29;20564;-79
2021/04/03 12:02:16;;;;;;;20.08;16.13;;;9.70;99.90;;;;;;4879895;29;20127;-81
2021/04/03 12:04:43;;;;;;;27.85;18.10;;;9.80;99.90;;;;;;4891968;29;20120;-80
2021/04/03 12:07:09;;;;;;;26.05;17.77;;;9.90;99.90;;;;;;4893686;29;20052;-80
2021/04/03 12:09:36;;;;;;;21.52;16.55;;;9.90;99.90;;;;;;4878421;29;20060;-80
2021/04/03 12:12:02;;;;;;;25.70;15.43;;;9.80;99.90;;;;;;4865355;29;20046;-81
2021/04/03 12:14:29;;;;;;;21.42;16.30;;;9.90;99.90;;;;;;4904525;29;20079;-80
2021/04/03 12:16:55;;;;;;;24.08;16.08;;;9.90;99.90;;;;;;4906716;29;20064;-81
2021/04/03 12:19:22;;;;;;;24.20;17.83;;;9.90;99.90;;;;;;4880126;29;20044;-80
2021/04/03 12:21:48;;;;;;;22.90;16.58;;;9.80;99.90;;;;;;4897085;29;20056;-80
2021/04/03 12:24:14;;;;;;;24.45;17.20;;;9.50;99.90;;;;;;4879261;29;20087;-80
2021/04/03 12:26:41;;;;;;;24.35;17.52;;;9.50;99.90;;;;;;4897402;29;20102;-81
2021/04/03 12:29:07;;;;;;;23.50;17.73;;;9.50;99.90;;;;;;4870031;29;20084;-80
2021/04/03 12:31:33;;;;;;;29.90;18.75;;;9.40;99.90;;;;;;4890183;29;20143;-81
2021/04/03 12:34:00;;;;;;;25.67;17.20;;;9.40;99.90;;;;;;4925922;29;20132;-82
2021/04/03 12:36:26;;;;;;;26.40;18.25;;;9.20;99.90;;;;;;4899301;29;20065;-81
2021/04/03 12:38:53;;;;;;;24.75;18.67;;;8.90;99.90;;;;;;4885953;29;20078;-80
2021/04/03 12:41:19;;;;;;;22.67;18.92;;;8.80;99.90;;;;;;4869916;29;20080;-81
2021/04/03 12:43:45;;;;;;;23.35;18.05;;;8.70;99.90;;;;;;4884086;29;20143;-79
2021/04/03 12:46:12;;;;;;;30.00;18.92;;;8.70;99.90;;;;;;4882761;29;20082;-81
2021/04/03 12:48:38;;;;;;;34.53;18.83;;;8.90;99.90;;;;;;4887935;29;20511;-79
2021/04/03 12:51:05;;;;;;;28.75;18.48;;;8.90;99.90;;;;;;4886650;29;20063;-80
2021/04/03 12:53:31;;;;;;;29.15;19.92;;;8.90;99.90;;;;;;4885218;29;20048;-81